Time;durP1;ratioP1;P1;durP2;ratioP2;P2;SDS_P1;SDS_P2;PMS_P1;PMS_P2;Temp;Humidity;BMP_temperature;BMP_pressure;BME280_temperature;BME280_humidity;BME280_pressure;Samples;Min_cycle;Max_cycle;Signal;HPM_P1;HPM_P2
2023/12/10 00:00:26;;;;;;;8.63;2.15;;;9.70;1.00;;;;;;5002867;28;20049;-76
2023/12/10 00:02:53;;;;;;;3.88;1.67;;;9.70;1.00;;;;;;5020174;28;20542;-76
2023/12/10 00:05:20;;;;;;;6.82;2.03;;;9.60;1.00;;;;;;5019578;28;20053;-76
2023/12/10 00:07:47;;;;;;;6.47;2.50;;;9.70;1.00;;;;;;5022140;28;20141;-76
2023/12/10 00:10:14;;;;;;;11.45;2.88;;;9.70;1.00;;;;;;5020244;28;20710;-76
2023/12/10 00:12:41;;;;;;;5.22;2.00;;;9.70;1.00;;;;;;5003645;28;20676;-76
2023/12/10 00:15:11;;;;;;;9.73;3.40;;;9.70;56.00;;;;;;5018849;28;20139;-76
2023/12/10 00:17:39;;;;;;;9.05;2.45;;;9.70;6.50;;;;;;5020682;28;20075;-76
2023/12/10 00:20:07;;;;;;;8.20;2.80;;;9.60;14.90;;;;;;5021409;28;20557;-76
2023/12/10 00:22:34;;;;;;;9.02;2.30;;;9.70;1.00;;;;;;5003494;28;20573;-76
2023/12/10 00:25:02;;;;;;;6.88;2.63;;;9.70;1.00;;;;;;5003288;28;20109;-76
2023/12/10 00:27:28;;;;;;;8.10;2.38;;;9.70;1.00;;;;;;5003731;28;20191;-76
2023/12/10 00:29:55;;;;;;;5.10;1.95;;;9.70;1.00;;;;;;5002551;28;20088;-76
2023/12/10 00:32:22;;;;;;;6.80;2.20;;;9.70;1.00;;;;;;5004098;28;20084;-77
2023/12/10 00:34:49;;;;;;;6.35;2.50;;;9.60;14.70;;;;;;5003057;28;20053;-75
2023/12/10 00:37:16;;;;;;;7.07;2.13;;;9.60;48.50;;;;;;5019286;28;20107;-76
2023/12/10 00:39:44;;;;;;;7.40;2.40;;;9.60;1.00;;;;;;5021224;28;20064;-76
2023/12/10 00:42:11;;;;;;;8.73;2.15;;;9.60;1.00;;;;;;5020936;28;20384;-76
2023/12/10 00:44:38;;;;;;;6.80;2.47;;;9.60;1.00;;;;;;5019118;28;20049;-76
2023/12/10 00:47:05;;;;;;;8.02;2.15;;;9.60;1.00;;;;;;5019555;28;20053;-76
2023/12/10 00:49:32;;;;;;;6.22;2.22;;;9.60;1.00;;;;;;5019636;28;20061;-76
2023/12/10 00:51:59;;;;;;;8.38;2.20;;;9.60;1.00;;;;;;5020931;28;20115;-76
2023/12/10 00:54:26;;;;;;;4.90;1.73;;;9.50;1.00;;;;;;5017538;28;20075;-76
2023/12/10 00:56:53;;;;;;;5.32;1.70;;;9.50;1.00;;;;;;5001472;28;20079;-75
2023/12/10 00:59:20;;;;;;;5.55;1.73;;;9.50;1.00;;;;;;5000784;28;20060;-76
2023/12/10 01:01:47;;;;;;;3.40;1.70;;;9.50;1.00;;;;;;5019939;28;20053;-76
2023/12/10 01:04:14;;;;;;;3.28;1.52;;;9.50;1.00;;;;;;5018331;28;20099;-75
2023/12/10 01:06:41;;;;;;;6.57;2.83;;;9.50;1.00;;;;;;5003002;28;20045;-75
2023/12/10 01:09:08;;;;;;;3.20;1.52;;;9.50;1.00;;;;;;5002337;28;20057;-75
2023/12/10 01:11:35;;;;;;;5.60;1.77;;;9.50;1.00;;;;;;5020553;28;20103;-76
2023/12/10 01:14:03;;;;;;;3.60;1.40;;;9.40;1.00;;;;;;5002481;28;20049;-77
2023/12/10 01:16:30;;;;;;;5.65;1.50;;;9.40;1.00;;;;;;5013375;28;20042;-76
2023/12/10 01:18:57;;;;;;;2.55;0.73;;;9.40;1.00;;;;;;4999261;28;20073;-75
2023/12/10 01:21:25;;;;;;;4.50;1.42;;;9.40;1.00;;;;;;4999160;28;20054;-76
2023/12/10 01:23:54;;;;;;;3.60;1.52;;;9.40;1.00;;;;;;5017024;28;20053;-76
2023/12/10 01:26:21;;;;;;;6.32;1.70;;;9.40;1.00;;;;;;5019737;28;20556;-76
2023/12/10 01:28:48;;;;;;;8.73;1.70;;;9.40;1.00;;;;;;5019824;28;20060;-76
2023/12/10 01:31:16;;;;;;;7.05;1.88;;;9.40;1.00;;;;;;5001499;28;20103;-76
2023/12/10 01:33:44;;;;;;;4.70;1.45;;;9.40;1.00;;;;;;5002416;28;20050;-76
2023/12/10 01:36:23;;;;;;;5.45;2.20;;;9.40;1.00;;;;;;5018717;28;20228;-76
2023/12/10 01:38:51;;;;;;;5.50;1.38;;;9.40;1.00;;;;;;5002768;28;20053;-76
2023/12/10 01:41:18;;;;;;;7.93;2.28;;;9.40;99.90;;;;;;5019626;28;20053;-76
2023/12/10 01:43:45;;;;;;;7.03;2.42;;;9.40;1.00;;;;;;5001492;28;20041;-75
2023/12/10 01:46:12;;;;;;;4.53;1.75;;;9.40;1.00;;;;;;5017813;28;20057;-76
2023/12/10 01:48:41;;;;;;;4.40;1.80;;;9.40;1.00;;;;;;5018614;28;20046;-76
2023/12/10 01:51:08;;;;;;;5.68;2.15;;;9.40;1.00;;;;;;5002354;28;20053;-76
2023/12/10 01:53:35;;;;;;;7.20;1.75;;;9.40;1.00;;;;;;5018575;28;20049;-76
2023/12/10 01:56:01;;;;;;;5.10;1.67;;;9.40;99.90;;;;;;5001214;28;20491;-76
2023/12/10 01:58:28;;;;;;;4.40;1.67;;;9.40;1.00;;;;;;5016598;28;20088;-76
2023/12/10 02:00:57;;;;;;;6.53;1.92;;;9.40;1.00;;;;;;5027970;28;20107;-76
2023/12/10 02:03:24;;;;;;;3.85;1.92;;;9.40;99.90;;;;;;5016885;28;20057;-76
2023/12/10 02:05:51;;;;;;;6.70;2.30;;;9.40;1.00;;;;;;5035393;28;20049;-76
2023/12/10 02:08:19;;;;;;;4.50;1.50;;;9.30;99.90;;;;;;5021539;28;20065;-76
2023/12/10 02:10:46;;;;;;;8.02;1.90;;;9.30;99.90;;;;;;5021892;28;20156;-76
2023/12/10 02:13:13;;;;;;;3.92;1.42;;;9.30;99.90;;;;;;5021124;28;20092;-76
2023/12/10 02:15:40;;;;;;;4.78;1.60;;;9.30;99.90;;;;;;5020575;28;20045;-76
2023/12/10 02:18:07;;;;;;;3.70;1.50;;;9.30;99.90;;;;;;5005904;28;20053;-77
2023/12/10 02:20:35;;;;;;;4.43;1.33;;;9.30;99.90;;;;;;5021080;28;20426;-76
2023/12/10 02:23:04;;;;;;;4.47;1.70;;;9.30;99.90;;;;;;5021295;28;20049;-76
2023/12/10 02:25:53;;;;;;;7.45;1.77;;;9.30;99.90;;;;;;5020914;28;20075;-77
2023/12/10 02:28:23;;;;;;;6.38;1.90;;;9.30;99.90;;;;;;5022090;28;20049;-76
2023/12/10 02:30:50;;;;;;;5.88;1.45;;;9.30;1.00;;;;;;5038676;28;20164;-78
2023/12/10 02:33:17;;;;;;;6.32;1.90;;;9.30;99.90;;;;;;5035519;28;20052;-77
2023/12/10 02:35:44;;;;;;;2.38;1.05;;;9.30;99.90;;;;;;5023729;28;20052;-76
2023/12/10 02:38:11;;;;;;;7.68;1.50;;;9.30;99.90;;;;;;5025822;28;20041;-76
2023/12/10 02:40:38;;;;;;;5.10;1.45;;;9.30;99.90;;;;;;5027198;28;20138;-77
2023/12/10 02:43:05;;;;;;;4.10;2.22;;;9.20;99.90;;;;;;5025369;28;20068;-76
2023/12/10 02:45:32;;;;;;;4.00;1.40;;;9.20;1.00;;;;;;5022398;28;20509;-76
2023/12/10 02:47:59;;;;;;;4.50;1.58;;;9.20;99.90;;;;;;5027018;28;20115;-76
2023/12/10 02:50:26;;;;;;;3.38;1.17;;;9.20;99.90;;;;;;5025622;28;20313;-76
2023/12/10 02:52:53;;;;;;;3.15;0.95;;;9.20;99.90;;;;;;5008943;28;20045;-76
2023/12/10 02:55:20;;;;;;;2.95;1.08;;;9.10;99.90;;;;;;5009044;28;20085;-76
2023/12/10 02:57:47;;;;;;;2.63;0.82;;;9.10;99.90;;;;;;5026795;28;20054;-76
2023/12/10 03:00:15;;;;;;;1.92;1.00;;;9.00;99.90;;;;;;5023524;28;20064;-76
2023/12/10 03:02:43;;;;;;;6.70;1.27;;;9.00;99.90;;;;;;5023676;28;20139;-76
2023/12/10 03:05:10;;;;;;;3.20;0.95;;;9.00;99.90;;;;;;5039667;28;20056;-76
2023/12/10 03:07:37;;;;;;;4.00;1.10;;;9.00;1.00;;;;;;5025788;28;20433;-76
2023/12/10 03:10:04;;;;;;;5.13;1.20;;;9.00;1.00;;;;;;5021083;28;20150;-77
2023/12/10 03:12:31;;;;;;;3.40;1.10;;;8.90;99.90;;;;;;5024114;28;20046;-76
2023/12/10 03:14:59;;;;;;;3.55;1.10;;;8.90;1.00;;;;;;5023461;28;20077;-76
2023/12/10 03:17:25;;;;;;;5.00;1.73;;;8.90;1.00;;;;;;5022365;28;20121;-76
2023/12/10 03:19:53;;;;;;;5.30;1.45;;;8.90;1.00;;;;;;5024503;28;20453;-75
2023/12/10 03:22:20;;;;;;;4.53;1.38;;;8.90;1.00;;;;;;5006685;28;20053;-76
2023/12/10 03:24:47;;;;;;;4.55;1.65;;;8.90;99.90;;;;;;5023625;28;20548;-77
2023/12/10 03:27:15;;;;;;;4.18;1.35;;;8.90;99.90;;;;;;5022568;28;20049;-76
2023/12/10 03:29:42;;;;;;;5.40;1.77;;;8.90;99.90;;;;;;5005105;28;20048;-76
2023/12/10 03:32:09;;;;;;;2.15;0.93;;;8.90;99.90;;;;;;5023191;28;20049;-76
2023/12/10 03:34:36;;;;;;;2.03;0.77;;;8.90;99.90;;;;;;5023719;28;20057;-76
2023/12/10 03:37:03;;;;;;;3.25;1.02;;;8.90;99.90;;;;;;5006524;28;20084;-77
2023/12/10 03:39:30;;;;;;;4.68;1.15;;;8.90;99.90;;;;;;5023900;28;20762;-76
2023/12/10 03:41:57;;;;;;;4.88;1.65;;;8.90;99.90;;;;;;5022770;28;20385;-76
2023/12/10 03:44:24;;;;;;;5.43;1.27;;;8.90;99.90;;;;;;5007490;28;20104;-76
2023/12/10 03:46:51;;;;;;;3.20;1.35;;;8.80;99.90;;;;;;5023208;28;20395;-76
2023/12/10 03:49:19;;;;;;;3.72;1.08;;;8.90;99.90;;;;;;5007750;28;20053;-76
2023/12/10 03:51:45;;;;;;;3.97;1.00;;;8.80;99.90;;;;;;5007506;28;20046;-76
2023/12/10 03:54:12;;;;;;;3.58;1.10;;;8.80;99.90;;;;;;5023849;28;20436;-76
2023/12/10 03:56:39;;;;;;;5.43;1.50;;;8.80;1.00;;;;;;5022849;28;20176;-76
2023/12/10 03:59:06;;;;;;;4.32;1.10;;;8.70;1.00;;;;;;5022957;28;20052;-76
2023/12/10 04:01:34;;;;;;;3.47;1.13;;;8.70;99.90;;;;;;5022967;28;20057;-76
2023/12/10 04:04:01;;;;;;;2.17;1.10;;;8.70;1.00;;;;;;5038226;28;20052;-76
2023/12/10 04:06:28;;;;;;;3.47;1.27;;;8.70;1.00;;;;;;5023905;28;20081;-76
2023/12/10 04:08:55;;;;;;;4.60;1.02;;;8.70;1.00;;;;;;5039405;28;20512;-76
2023/12/10 04:11:25;;;;;;;2.67;0.90;;;8.70;1.00;;;;;;5007766;28;20053;-76
2023/12/10 04:13:52;;;;;;;3.60;1.35;;;8.70;1.00;;;;;;5022485;28;20057;-76
2023/12/10 04:16:29;;;;;;;2.97;1.48;;;8.70;1.00;;;;;;5028208;28;20092;-76
2023/12/10 04:18:56;;;;;;;5.13;1.70;;;8.70;1.00;;;;;;5022844;28;20628;-76
2023/12/10 04:21:23;;;;;;;2.10;1.08;;;8.60;1.00;;;;;;5024275;28;20049;-77
2023/12/10 04:23:50;;;;;;;2.28;0.77;;;8.60;1.00;;;;;;5023815;28;20041;-75
2023/12/10 04:26:17;;;;;;;2.97;1.27;;;8.70;1.00;;;;;;5022084;28;20064;-76
2023/12/10 04:28:44;;;;;;;3.10;1.35;;;8.70;1.00;;;;;;5007641;28;20111;-76
2023/12/10 04:31:12;;;;;;;4.40;1.27;;;8.70;1.00;;;;;;5007801;28;20045;-76
2023/12/10 04:33:39;;;;;;;3.58;1.60;;;8.60;1.00;;;;;;5024735;28;20057;-76
2023/12/10 04:36:06;;;;;;;3.67;1.38;;;8.70;1.00;;;;;;5021832;28;20123;-76
2023/12/10 04:38:33;;;;;;;2.55;1.05;;;8.60;1.00;;;;;;5025303;28;20196;-76
2023/12/10 04:41:00;;;;;;;2.85;1.00;;;8.70;1.00;;;;;;5040996;28;20072;-76
2023/12/10 04:43:27;;;;;;;1.80;0.70;;;8.60;99.90;;;;;;5024438;28;20223;-76
2023/12/10 04:45:55;;;;;;;2.45;0.70;;;8.60;99.90;;;;;;5021087;28;20108;-76
2023/12/10 04:48:22;;;;;;;3.40;1.13;;;8.60;99.90;;;;;;5022859;28;20057;-76
2023/12/10 04:50:49;;;;;;;2.80;0.90;;;8.60;99.90;;;;;;5025048;28;20084;-75
2023/12/10 04:53:16;;;;;;;2.55;0.82;;;8.60;99.90;;;;;;5026358;28;20103;-76
2023/12/10 04:55:43;;;;;;;2.75;0.93;;;8.60;99.90;;;;;;5025125;28;20049;-76
2023/12/10 04:58:10;;;;;;;2.85;0.90;;;8.70;99.90;;;;;;5024909;28;20049;-76
2023/12/10 05:00:38;;;;;;;3.03;0.75;;;8.70;99.90;;;;;;5007746;28;20457;-76
2023/12/10 05:03:05;;;;;;;2.65;0.95;;;8.70;99.90;;;;;;5023965;28;20080;-76
2023/12/10 05:05:32;;;;;;;2.90;0.77;;;8.70;99.90;;;;;;5004911;28;20069;-76
2023/12/10 05:07:59;;;;;;;1.85;0.80;;;8.70;99.90;;;;;;5021612;28;20522;-75
2023/12/10 05:10:26;;;;;;;1.75;0.63;;;8.70;99.90;;;;;;5005974;28;20058;-76
2023/12/10 05:12:58;;;;;;;1.65;0.60;;;8.70;99.90;;;;;;5010341;28;20406;-76
2023/12/10 05:15:25;;;;;;;2.03;0.70;;;8.70;99.90;;;;;;5006967;28;20052;-77
2023/12/10 05:17:52;;;;;;;3.03;1.17;;;8.70;99.90;;;;;;5025175;28;20053;-76
2023/12/10 05:20:19;;;;;;;2.28;0.70;;;8.70;99.90;;;;;;5007948;28;20057;-76
2023/12/10 05:22:46;;;;;;;2.13;1.00;;;8.70;99.90;;;;;;5024237;28;20091;-76
2023/12/10 05:25:13;;;;;;;5.30;1.15;;;8.70;99.90;;;;;;5020545;28;20595;-75
2023/12/10 05:27:40;;;;;;;3.70;1.00;;;8.70;99.90;;;;;;5024523;28;20049;-76
2023/12/10 05:30:07;;;;;;;3.85;1.40;;;8.70;99.90;;;;;;5039044;28;20060;-76
2023/12/10 05:32:34;;;;;;;4.22;0.95;;;8.70;99.90;;;;;;5024898;28;20380;-76
2023/12/10 05:35:02;;;;;;;2.78;1.02;;;8.70;99.90;;;;;;5022242;28;20052;-76
2023/12/10 05:37:29;;;;;;;2.15;0.65;;;8.70;99.90;;;;;;5037277;28;20391;-76
2023/12/10 05:39:56;;;;;;;2.67;0.70;;;8.70;99.90;;;;;;5021349;28;20107;-76
2023/12/10 05:42:23;;;;;;;3.42;0.82;;;8.70;99.90;;;;;;5006994;28;20663;-76
2023/12/10 05:44:50;;;;;;;3.63;1.00;;;8.70;99.90;;;;;;5037621;28;20058;-77
2023/12/10 05:47:17;;;;;;;2.70;0.95;;;8.70;99.90;;;;;;5023713;28;20049;-76
2023/12/10 05:49:44;;;;;;;1.40;0.77;;;8.70;99.90;;;;;;5019916;28;20119;-76
2023/12/10 05:52:12;;;;;;;1.85;0.73;;;8.70;99.90;;;;;;5005842;28;20107;-75
2023/12/10 05:54:39;;;;;;;2.53;0.77;;;8.70;99.90;;;;;;5021216;28;20053;-76
2023/12/10 05:57:06;;;;;;;1.95;1.02;;;8.80;99.90;;;;;;5020877;28;20052;-76
2023/12/10 05:59:34;;;;;;;3.42;1.10;;;8.80;99.90;;;;;;5035853;28;20443;-76
2023/12/10 06:02:01;;;;;;;2.85;0.90;;;8.80;99.90;;;;;;5022063;28;20052;-76
2023/12/10 06:04:28;;;;;;;2.05;1.02;;;8.90;99.90;;;;;;5014063;28;20045;-76
2023/12/10 06:06:55;;;;;;;2.28;1.02;;;8.90;99.90;;;;;;5017348;28;20264;-76
2023/12/10 06:09:22;;;;;;;4.97;1.08;;;9.00;99.90;;;;;;5017203;28;20136;-76
2023/12/10 06:11:50;;;;;;;2.67;1.35;;;9.00;99.90;;;;;;5016985;28;20049;-76
2023/12/10 06:14:17;;;;;;;5.40;1.20;;;9.00;99.90;;;;;;5017517;28;20061;-76
2023/12/10 06:16:44;;;;;;;3.05;1.20;;;9.10;99.90;;;;;;5015103;28;20131;-76
2023/12/10 06:19:11;;;;;;;2.22;1.00;;;9.10;1.00;;;;;;5022563;28;20233;-76
2023/12/10 06:21:38;;;;;;;4.32;1.42;;;9.10;99.90;;;;;;5002408;28;20076;-76
2023/12/10 06:24:06;;;;;;;6.07;1.40;;;9.10;99.90;;;;;;5015931;28;20045;-76
2023/12/10 06:26:32;;;;;;;3.25;0.90;;;9.10;99.90;;;;;;5018256;28;20052;-76
2023/12/10 06:28:59;;;;;;;2.75;0.77;;;9.20;1.00;;;;;;5019595;28;20053;-76
2023/12/10 06:31:26;;;;;;;4.95;1.33;;;9.20;99.90;;;;;;5020211;28;20056;-76
2023/12/10 06:33:54;;;;;;;2.85;1.00;;;9.20;99.90;;;;;;5020952;28;20049;-76
2023/12/10 06:36:21;;;;;;;2.13;1.00;;;9.20;1.00;;;;;;5021380;28;20052;-76
2023/12/10 06:38:48;;;;;;;2.50;0.88;;;9.20;99.90;;;;;;5020633;28;20057;-76
2023/12/10 06:41:15;;;;;;;1.40;0.55;;;9.20;99.90;;;;;;5018170;28;20520;-76
2023/12/10 06:43:42;;;;;;;1.80;0.70;;;9.30;99.90;;;;;;5015383;28;20046;-76
2023/12/10 06:46:13;;;;;;;1.45;0.75;;;9.30;99.90;;;;;;5017688;28;20055;-76
2023/12/10 06:48:40;;;;;;;2.65;1.02;;;9.30;99.90;;;;;;5019530;28;20049;-76
2023/12/10 06:51:07;;;;;;;3.40;0.80;;;9.30;99.90;;;;;;5021550;28;20063;-76
2023/12/10 06:53:34;;;;;;;3.72;1.52;;;9.40;99.90;;;;;;5024735;28;20479;-76
2023/12/10 06:56:01;;;;;;;2.78;1.00;;;9.50;99.90;;;;;;5022275;28;20064;-76
2023/12/10 06:58:28;;;;;;;4.25;0.90;;;9.50;99.90;;;;;;5020507;28;20049;-75
2023/12/10 07:00:56;;;;;;;2.38;0.80;;;9.50;99.90;;;;;;5020592;28;20099;-76
2023/12/10 07:03:24;;;;;;;2.80;1.42;;;9.50;99.90;;;;;;5019826;28;20180;-76
2023/12/10 07:05:51;;;;;;;1.55;0.65;;;9.50;99.90;;;;;;5021855;28;20398;-75
2023/12/10 07:08:18;;;;;;;2.17;0.70;;;9.50;99.90;;;;;;5016401;28;20049;-76
2023/12/10 07:10:45;;;;;;;0.90;0.57;;;9.50;99.90;;;;;;5025382;28;20103;-75
2023/12/10 07:13:13;;;;;;;2.00;0.52;;;9.40;99.90;;;;;;5023797;28;20041;-76
2023/12/10 07:15:42;;;;;;;1.60;0.60;;;9.40;99.90;;;;;;5020655;28;20056;-76
2023/12/10 07:18:09;;;;;;;1.02;0.50;;;9.40;1.00;;;;;;5020889;28;20053;-76
2023/12/10 07:20:36;;;;;;;1.60;0.63;;;9.40;1.00;;;;;;5005681;28;20042;-76
2023/12/10 07:23:03;;;;;;;0.98;0.47;;;9.30;99.90;;;;;;5020287;28;20103;-76
2023/12/10 07:25:30;;;;;;;1.70;0.63;;;9.30;1.00;;;;;;5020661;28;20042;-75
2023/12/10 07:27:57;;;;;;;1.40;0.40;;;9.30;1.00;;;;;;5024106;28;20495;-76
2023/12/10 07:30:24;;;;;;;1.52;0.60;;;9.30;1.00;;;;;;5022448;28;20052;-76
2023/12/10 07:32:51;;;;;;;2.13;0.80;;;9.30;1.00;;;;;;5023366;28;20060;-76
2023/12/10 07:35:18;;;;;;;1.38;0.52;;;9.30;1.00;;;;;;5023032;28;20513;-76
2023/12/10 07:37:45;;;;;;;1.88;0.60;;;9.30;1.00;;;;;;5021569;28;20050;-76
2023/12/10 07:40:12;;;;;;;1.42;0.70;;;9.20;1.00;;;;;;5021575;28;20091;-76
2023/12/10 07:42:39;;;;;;;0.65;0.43;;;9.30;99.90;;;;;;5004859;28;20057;-75
2023/12/10 07:45:06;;;;;;;0.80;0.45;;;9.20;1.00;;;;;;5024663;28;20045;-76
2023/12/10 07:47:33;;;;;;;1.73;0.60;;;9.30;1.00;;;;;;5021044;28;20072;-76
2023/12/10 07:50:00;;;;;;;1.25;0.60;;;9.30;1.00;;;;;;5022679;28;20076;-76
2023/12/10 07:52:27;;;;;;;2.72;0.90;;;9.30;1.00;;;;;;5023985;28;20049;-76
2023/12/10 07:54:54;;;;;;;2.30;0.70;;;9.30;1.00;;;;;;5026327;28;20128;-76
2023/12/10 07:57:21;;;;;;;2.47;0.80;;;9.30;1.00;;;;;;5022605;28;20107;-76
2023/12/10 07:59:48;;;;;;;1.73;0.70;;;9.30;1.00;;;;;;5018391;28;20045;-78
2023/12/10 08:02:15;;;;;;;1.15;0.57;;;9.40;1.00;;;;;;5018807;28;20111;-78
2023/12/10 08:04:42;;;;;;;3.20;0.85;;;9.40;1.00;;;;;;5005304;28;20042;-79
2023/12/10 08:07:09;;;;;;;2.47;0.80;;;9.30;1.00;;;;;;5018670;28;20115;-78
2023/12/10 08:09:36;;;;;;;3.22;0.95;;;9.30;1.00;;;;;;5021707;28;20049;-79
2023/12/10 08:12:03;;;;;;;1.23;0.70;;;9.30;1.00;;;;;;5021823;28;20041;-79
2023/12/10 08:14:30;;;;;;;2.88;1.00;;;9.30;1.00;;;;;;5020171;28;20056;-78
2023/12/10 08:16:59;;;;;;;2.05;1.05;;;9.30;1.00;;;;;;5017989;28;20128;-79
2023/12/10 08:19:28;;;;;;;1.90;0.85;;;9.30;1.00;;;;;;5020324;28;20076;-79
2023/12/10 08:21:55;;;;;;;4.40;0.80;;;9.30;1.00;;;;;;5018562;28;20049;-78
2023/12/10 08:24:22;;;;;;;1.40;0.60;;;9.30;1.00;;;;;;5020464;28;20124;-77
2023/12/10 08:26:49;;;;;;;2.80;0.80;;;9.30;1.00;;;;;;5020866;28;20085;-78
2023/12/10 08:29:16;;;;;;;4.40;1.10;;;9.30;1.00;;;;;;5023495;28;20056;-78
2023/12/10 08:31:43;;;;;;;2.45;0.90;;;9.30;1.00;;;;;;5018944;28;20128;-78
2023/12/10 08:34:09;;;;;;;1.85;0.80;;;9.30;1.00;;;;;;5021632;28;20057;-79
2023/12/10 08:36:40;;;;;;;0.77;0.50;;;9.30;1.00;;;;;;5022335;28;20073;-78
2023/12/10 08:39:07;;;;;;;1.65;0.98;;;9.30;1.00;;;;;;5022441;28;20049;-78
2023/12/10 08:41:33;;;;;;;1.95;0.70;;;9.30;1.00;;;;;;5020875;28;20053;-79
2023/12/10 08:44:01;;;;;;;1.35;0.50;;;9.30;1.00;;;;;;5021125;28;20470;-79
2023/12/10 08:46:29;;;;;;;0.82;0.50;;;9.40;1.00;;;;;;5016179;28;20064;-79
2023/12/10 08:48:56;;;;;;;2.35;0.90;;;9.50;1.00;;;;;;5018193;28;20046;-77
2023/12/10 08:51:23;;;;;;;2.35;0.80;;;9.50;1.00;;;;;;5019738;28;20053;-79
2023/12/10 08:53:50;;;;;;;1.73;1.08;;;9.60;1.00;;;;;;5016956;28;20883;-79
2023/12/10 08:56:17;;;;;;;3.70;1.63;;;9.70;1.00;;;;;;5033894;28;20128;-78
2023/12/10 08:58:45;;;;;;;1.92;0.77;;;9.70;1.00;;;;;;5019098;28;20560;-78
2023/12/10 09:01:12;;;;;;;2.70;0.80;;;9.80;1.00;;;;;;5016576;28;20053;-78
2023/12/10 09:03:42;;;;;;;2.47;1.15;;;9.90;1.00;;;;;;5017609;28;20042;-80
2023/12/10 09:06:09;;;;;;;1.88;0.70;;;9.80;1.00;;;;;;5017912;28;20135;-78
2023/12/10 09:08:36;;;;;;;1.23;0.70;;;9.90;1.00;;;;;;5017426;28;20041;-78
2023/12/10 09:11:04;;;;;;;4.38;1.20;;;9.90;1.00;;;;;;5001640;28;20064;-78
2023/12/10 09:13:32;;;;;;;3.83;1.35;;;10.00;1.00;;;;;;5014654;28;20050;-78
2023/12/10 09:15:59;;;;;;;4.35;1.50;;;10.00;1.00;;;;;;5015853;28;20041;-79
2023/12/10 09:18:26;;;;;;;2.67;1.15;;;10.10;1.00;;;;;;5016788;28;20053;-78
2023/12/10 09:20:54;;;;;;;3.65;1.50;;;10.10;1.00;;;;;;5017182;28;20107;-77
2023/12/10 09:23:21;;;;;;;2.85;1.17;;;10.20;1.00;;;;;;5031265;28;20122;-78
2023/12/10 09:25:48;;;;;;;4.45;1.45;;;10.30;1.00;;;;;;5020620;28;20046;-75
2023/12/10 09:28:15;;;;;;;2.80;1.23;;;10.30;1.00;;;;;;4997785;28;20088;-77
2023/12/10 09:30:44;;;;;;;4.45;1.10;;;10.40;1.00;;;;;;4996058;28;20540;-75
2023/12/10 09:33:11;;;;;;;3.50;1.13;;;10.50;1.00;;;;;;5016994;28;20045;-76
2023/12/10 09:35:39;;;;;;;1.92;1.10;;;10.60;1.00;;;;;;5013375;28;20689;-76
2023/12/10 09:38:06;;;;;;;4.35;1.30;;;10.60;1.00;;;;;;5014980;28;20060;-78
2023/12/10 09:40:33;;;;;;;2.92;1.15;;;10.70;1.00;;;;;;5016435;28;20053;-77
2023/12/10 09:43:04;;;;;;;3.22;1.15;;;10.70;1.00;;;;;;5015369;28;20107;-77
2023/12/10 09:45:31;;;;;;;2.28;1.10;;;10.80;1.00;;;;;;5015867;28;20589;-77
2023/12/10 09:47:59;;;;;;;2.45;1.05;;;10.80;1.00;;;;;;5000128;28;20137;-78
2023/12/10 09:50:26;;;;;;;4.07;0.98;;;10.90;1.00;;;;;;5012636;28;20057;-77
2023/12/10 09:52:54;;;;;;;5.63;1.20;;;10.90;1.00;;;;;;4999880;28;20149;-77
2023/12/10 09:55:21;;;;;;;4.32;1.25;;;11.00;1.00;;;;;;4999887;28;20722;-78
2023/12/10 09:57:49;;;;;;;4.03;1.10;;;11.00;1.00;;;;;;5011558;28;20112;-78
2023/12/10 10:00:17;;;;;;;2.95;1.10;;;11.10;1.00;;;;;;5014365;28;20046;-78
2023/12/10 10:02:44;;;;;;;4.05;1.00;;;11.10;1.00;;;;;;5034150;28;20618;-77
2023/12/10 10:05:11;;;;;;;6.68;1.70;;;11.10;1.00;;;;;;5015234;28;20470;-78
2023/12/10 10:07:38;;;;;;;4.28;1.35;;;11.10;1.00;;;;;;5018140;28;20052;-77
2023/12/10 10:10:10;;;;;;;2.25;0.95;;;11.10;1.00;;;;;;5016953;28;20069;-77
2023/12/10 10:12:37;;;;;;;5.15;1.63;;;11.10;1.00;;;;;;5014973;28;20387;-78
2023/12/10 10:15:05;;;;;;;6.30;1.98;;;11.10;1.00;;;;;;4997608;28;20096;-77
2023/12/10 10:17:37;;;;;;;5.72;2.47;;;11.20;1.00;;;;;;5016074;28;20053;-77
2023/12/10 10:20:04;;;;;;;4.93;1.98;;;11.10;1.00;;;;;;4999895;28;20053;-77
2023/12/10 10:22:32;;;;;;;4.55;1.60;;;11.10;1.00;;;;;;5015359;28;20057;-78
2023/12/10 10:25:00;;;;;;;5.75;2.40;;;11.10;1.00;;;;;;5015922;28;20057;-77
2023/12/10 10:27:27;;;;;;;5.05;1.30;;;11.20;1.00;;;;;;5005986;28;20058;-78
2023/12/10 10:29:55;;;;;;;9.38;2.13;;;11.10;1.00;;;;;;5008927;28;20100;-77
2023/12/10 10:32:23;;;;;;;5.35;1.88;;;11.10;1.00;;;;;;5018532;28;20065;-77
2023/12/10 10:34:51;;;;;;;5.40;1.40;;;11.10;1.00;;;;;;5003040;28;20084;-77
2023/12/10 10:37:18;;;;;;;5.63;1.80;;;11.10;1.00;;;;;;5019620;28;20057;-76
2023/12/10 10:39:46;;;;;;;5.18;1.58;;;11.20;1.00;;;;;;5019496;28;20136;-77
2023/12/10 10:42:13;;;;;;;4.95;1.30;;;11.20;1.00;;;;;;5017742;28;20073;-77
2023/12/10 10:44:41;;;;;;;3.65;1.00;;;11.20;1.00;;;;;;5000330;28;20053;-78
2023/12/10 10:47:08;;;;;;;4.75;1.48;;;11.20;1.00;;;;;;5003884;28;20053;-76
2023/12/10 10:49:37;;;;;;;3.95;2.03;;;11.20;1.00;;;;;;5020750;28;20148;-76
2023/12/10 10:52:05;;;;;;;6.40;1.75;;;11.20;1.00;;;;;;5002759;28;20132;-78
2023/12/10 10:54:33;;;;;;;6.93;2.40;;;11.20;1.00;;;;;;5002227;28;20608;-77
2023/12/10 10:57:04;;;;;;;5.13;1.88;;;11.20;1.00;;;;;;5001108;28;20459;-78
2023/12/10 10:59:32;;;;;;;5.32;2.38;;;11.20;1.00;;;;;;5017690;28;20064;-75
2023/12/10 11:02:00;;;;;;;7.10;2.03;;;11.20;1.00;;;;;;5019547;28;20156;-75
2023/12/10 11:04:45;;;;;;;3.47;1.58;;;11.10;1.00;;;;;;5019047;28;20064;-75
2023/12/10 11:07:14;;;;;;;5.03;1.60;;;11.00;1.00;;;;;;5018690;28;20111;-76
2023/12/10 11:10:01;;;;;;;2.90;1.20;;;11.00;92.30;;;;;;5002641;28;20045;-75
2023/12/10 11:12:44;;;;;;;3.75;1.38;;;11.00;99.90;;;;;;5002380;28;20069;-74
2023/12/10 11:15:16;;;;;;;1.75;0.88;;;11.00;99.90;;;;;;5016856;28;20868;-75
2023/12/10 11:17:50;;;;;;;;;;;10.90;1.00;;;;;;5019506;28;20576;-75
2023/12/10 11:20:42;;;;;;;3.93;1.33;;;10.90;31.20;;;;;;5035101;28;19921;-75
2023/12/10 11:23:14;;;;;;;1.50;0.68;;;10.90;99.90;;;;;;5018882;28;20068;-77
2023/12/10 11:25:41;;;;;;;2.25;1.05;;;10.90;99.90;;;;;;5018839;28;20522;-77
2023/12/10 11:28:15;;;;;;;1.98;0.70;;;10.90;99.90;;;;;;5018875;28;20059;-77
2023/12/10 11:30:43;;;;;;;2.20;0.95;;;10.90;99.90;;;;;;5018108;28;20064;-76
2023/12/10 11:33:14;;;;;;;2.80;1.00;;;10.90;99.90;;;;;;5018667;28;20061;-77
2023/12/10 11:35:42;;;;;;;1.95;0.85;;;10.90;99.90;;;;;;5002383;28;20451;-77
2023/12/10 11:38:09;;;;;;;2.53;1.15;;;10.90;99.90;;;;;;5018031;28;20075;-77
2023/12/10 11:40:37;;;;;;;3.05;1.17;;;10.80;99.90;;;;;;5018011;28;20049;-77
2023/12/10 11:43:08;;;;;;;3.20;1.25;;;10.90;99.90;;;;;;4999790;28;20061;-77
2023/12/10 11:45:35;;;;;;;4.22;1.42;;;10.80;4.90;;;;;;5001522;28;20520;-76
2023/12/10 11:48:04;;;;;;;3.63;1.40;;;10.80;1.00;;;;;;5001760;28;20347;-77
2023/12/10 11:50:33;;;;;;;4.18;1.33;;;10.80;1.00;;;;;;5017500;28;20494;-76
2023/12/10 11:53:01;;;;;;;4.65;1.38;;;10.80;1.00;;;;;;5018105;28;20056;-77
2023/12/10 11:55:28;;;;;;;2.97;1.17;;;10.80;1.00;;;;;;5001873;28;20656;-77
2023/12/10 11:57:58;;;;;;;5.43;1.60;;;10.80;1.00;;;;;;4997987;28;20124;-77
2023/12/10 12:00:25;;;;;;;6.38;1.58;;;10.80;1.00;;;;;;5015949;28;20057;-77
2023/12/10 12:02:52;;;;;;;4.13;1.75;;;10.80;99.90;;;;;;5018431;28;20107;-76
2023/12/10 12:05:19;;;;;;;2.53;1.42;;;10.90;1.00;;;;;;5002006;28;20505;-77
2023/12/10 12:07:49;;;;;;;2.80;0.98;;;10.90;99.90;;;;;;5001596;28;20064;-77
2023/12/10 12:10:19;;;;;;;3.13;1.20;;;10.90;99.90;;;;;;5017544;28;20655;-76
2023/12/10 12:12:47;;;;;;;4.15;1.40;;;10.90;99.90;;;;;;5017498;28;20053;-77
2023/12/10 12:15:15;;;;;;;4.25;1.60;;;10.90;99.90;;;;;;5016375;28;20137;-76
2023/12/10 12:17:42;;;;;;;4.47;1.23;;;10.90;99.90;;;;;;5016963;28;20079;-77
2023/12/10 12:20:21;;;;;;;2.28;1.00;;;10.90;99.90;;;;;;5017662;28;20049;-76
2023/12/10 12:22:49;;;;;;;2.63;0.75;;;10.90;1.00;;;;;;5001594;28;20053;-76
2023/12/10 12:25:16;;;;;;;4.20;1.50;;;10.90;1.00;;;;;;5016494;28;20048;-76
2023/12/10 12:27:44;;;;;;;4.80;1.23;;;10.80;99.90;;;;;;5017056;28;20056;-76
2023/12/10 12:30:11;;;;;;;6.50;1.92;;;10.80;99.90;;;;;;4999082;28;20150;-76
2023/12/10 12:32:38;;;;;;;2.47;1.13;;;10.70;99.90;;;;;;5016306;28;20053;-76
2023/12/10 12:35:05;;;;;;;4.28;1.45;;;10.70;1.00;;;;;;4999569;28;20836;-76
2023/12/10 12:37:32;;;;;;;3.15;0.90;;;10.70;1.00;;;;;;5017515;28;20069;-76
2023/12/10 12:40:00;;;;;;;1.77;0.82;;;10.70;99.90;;;;;;5000664;28;20060;-75
2023/12/10 12:42:31;;;;;;;4.88;1.10;;;10.70;99.90;;;;;;4998250;28;20049;-75
2023/12/10 12:45:01;;;;;;;3.50;0.98;;;10.60;1.00;;;;;;5011729;28;20057;-81
2023/12/10 12:47:28;;;;;;;2.45;0.77;;;10.60;99.90;;;;;;5018215;28;20115;-82
2023/12/10 12:49:56;;;;;;;2.17;0.85;;;10.60;99.90;;;;;;5014821;28;20579;-80
2023/12/10 12:52:26;;;;;;;1.15;0.55;;;10.70;1.00;;;;;;5015097;28;20153;-81
2023/12/10 12:54:53;;;;;;;1.88;0.90;;;10.70;58.30;;;;;;5013749;28;20050;-80
2023/12/10 12:57:23;;;;;;;1.73;0.93;;;10.70;99.90;;;;;;5014467;28;20072;-82
2023/12/10 12:59:50;;;;;;;2.38;1.00;;;10.70;99.90;;;;;;5014769;28;20057;-81
2023/12/10 13:02:18;;;;;;;2.85;0.90;;;10.70;99.90;;;;;;5001469;28;20489;-81